Inkster, Michigan
Current Conditions -  °F | °C
As of 10:53 AM on Thursday 29 Jan 2015 (Local Time) from KDTW Reporting Station
Overcast Overcast  
Wind Chill: 28°   Ceiling: 4000
Heat Index: 33°   Visibility: 10mi
Dew Point: 26°   Wind: 6mph
Humidity: 75%   Direction: 160°SSE
Pressure: 29.75"   Gusts: NA
Location:  42.3°N, 83.31°W
Report Text: KDTW 291553Z 16005KT 10SM OVC040 01/M03 A2975 RMK AO2 SLP082 T00061033
Loading
Personal Weather Stations






























Interactive Weather Map New forecast layout! Learn more

10-Day Weather Forecast

Advertisements
Track Severe Weather on mobile